sensor_id;sensor_type;location;lat;lon;timestamp;P1;durP1;ratioP1;P2;durP2;ratioP2
51451;SDS011;37521;52.020;-1.740;2023-05-07T00:02:01;7.07;;;4.30;;
51451;SDS011;37521;52.020;-1.740;2023-05-07T00:04:31;6.80;;;4.43;;
51451;SDS011;37521;52.020;-1.740;2023-05-07T00:07:03;6.82;;;3.67;;
51451;SDS011;37521;52.020;-1.740;2023-05-07T00:09:32;5.80;;;4.15;;
51451;SDS011;37521;52.020;-1.740;2023-05-07T00:12:01;7.57;;;4.25;;
51451;SDS011;37521;52.020;-1.740;2023-05-07T00:14:29;6.90;;;3.97;;
51451;SDS011;37521;52.020;-1.740;2023-05-07T00:16:57;8.07;;;4.43;;
51451;SDS011;37521;52.020;-1.740;2023-05-07T00:19:25;9.15;;;4.90;;
51451;SDS011;37521;52.020;-1.740;2023-05-07T00:21:55;7.72;;;4.00;;
51451;SDS011;37521;52.020;-1.740;2023-05-07T00:24:23;8.10;;;3.60;;
51451;SDS011;37521;52.020;-1.740;2023-05-07T00:26:51;6.50;;;3.83;;
51451;SDS011;37521;52.020;-1.740;2023-05-07T00:29:20;3.92;;;2.83;;
51451;SDS011;37521;52.020;-1.740;2023-05-07T00:31:48;4.80;;;2.95;;
51451;SDS011;37521;52.020;-1.740;2023-05-07T00:34:17;5.32;;;3.03;;
51451;SDS011;37521;52.020;-1.740;2023-05-07T00:36:46;5.85;;;3.53;;
51451;SDS011;37521;52.020;-1.740;2023-05-07T00:39:15;6.47;;;3.85;;
51451;SDS011;37521;52.020;-1.740;2023-05-07T00:41:44;6.45;;;3.35;;
51451;SDS011;37521;52.020;-1.740;2023-05-07T00:44:12;4.60;;;3.05;;
51451;SDS011;37521;52.020;-1.740;2023-05-07T00:46:40;6.25;;;3.90;;
51451;SDS011;37521;52.020;-1.740;2023-05-07T00:49:08;5.70;;;3.20;;
51451;SDS011;37521;52.020;-1.740;2023-05-07T00:51:37;7.57;;;3.60;;
51451;SDS011;37521;52.020;-1.740;2023-05-07T00:54:05;4.93;;;3.25;;
51451;SDS011;37521;52.020;-1.740;2023-05-07T00:56:34;4.65;;;3.05;;
51451;SDS011;37521;52.020;-1.740;2023-05-07T00:59:04;6.28;;;3.53;;
51451;SDS011;37521;52.020;-1.740;2023-05-07T01:01:34;5.82;;;3.42;;
51451;SDS011;37521;52.020;-1.740;2023-05-07T01:04:03;5.68;;;3.40;;
51451;SDS011;37521;52.020;-1.740;2023-05-07T01:06:32;6.13;;;3.85;;
51451;SDS011;37521;52.020;-1.740;2023-05-07T01:09:01;6.13;;;3.28;;
51451;SDS011;37521;52.020;-1.740;2023-05-07T01:11:31;3.75;;;3.08;;
51451;SDS011;37521;52.020;-1.740;2023-05-07T01:14:00;4.50;;;3.70;;
51451;SDS011;37521;52.020;-1.740;2023-05-07T01:16:30;7.70;;;4.20;;
51451;SDS011;37521;52.020;-1.740;2023-05-07T01:18:59;8.48;;;4.00;;
51451;SDS011;37521;52.020;-1.740;2023-05-07T01:21:28;5.32;;;3.55;;
51451;SDS011;37521;52.020;-1.740;2023-05-07T01:24:04;9.30;;;4.30;;
51451;SDS011;37521;52.020;-1.740;2023-05-07T01:26:33;7.55;;;3.80;;
51451;SDS011;37521;52.020;-1.740;2023-05-07T01:29:01;6.68;;;3.97;;
51451;SDS011;37521;52.020;-1.740;2023-05-07T01:31:29;7.10;;;4.25;;
51451;SDS011;37521;52.020;-1.740;2023-05-07T01:33:58;8.15;;;4.10;;
51451;SDS011;37521;52.020;-1.740;2023-05-07T01:36:28;8.98;;;4.65;;
51451;SDS011;37521;52.020;-1.740;2023-05-07T01:38:58;6.07;;;4.10;;
51451;SDS011;37521;52.020;-1.740;2023-05-07T01:41:28;6.57;;;4.30;;
51451;SDS011;37521;52.020;-1.740;2023-05-07T01:43:57;6.60;;;3.85;;
51451;SDS011;37521;52.020;-1.740;2023-05-07T01:46:26;5.95;;;3.75;;
51451;SDS011;37521;52.020;-1.740;2023-05-07T01:48:55;6.40;;;4.60;;
51451;SDS011;37521;52.020;-1.740;2023-05-07T01:51:23;6.30;;;3.47;;
51451;SDS011;37521;52.020;-1.740;2023-05-07T01:53:52;5.60;;;3.58;;
51451;SDS011;37521;52.020;-1.740;2023-05-07T01:56:20;5.65;;;4.18;;
51451;SDS011;37521;52.020;-1.740;2023-05-07T01:58:50;4.88;;;3.67;;
51451;SDS011;37521;52.020;-1.740;2023-05-07T02:01:19;7.68;;;3.92;;
51451;SDS011;37521;52.020;-1.740;2023-05-07T02:03:49;5.25;;;3.08;;
51451;SDS011;37521;52.020;-1.740;2023-05-07T02:06:22;5.60;;;3.58;;
51451;SDS011;37521;52.020;-1.740;2023-05-07T02:08:54;6.53;;;4.10;;
51451;SDS011;37521;52.020;-1.740;2023-05-07T02:11:23;5.75;;;3.17;;
51451;SDS011;37521;52.020;-1.740;2023-05-07T02:13:53;4.10;;;3.05;;
51451;SDS011;37521;52.020;-1.740;2023-05-07T02:16:21;5.35;;;3.45;;
51451;SDS011;37521;52.020;-1.740;2023-05-07T02:18:51;6.68;;;3.67;;
51451;SDS011;37521;52.020;-1.740;2023-05-07T02:21:19;5.85;;;3.53;;
51451;SDS011;37521;52.020;-1.740;2023-05-07T02:23:47;4.68;;;3.30;;
51451;SDS011;37521;52.020;-1.740;2023-05-07T02:26:15;6.38;;;4.00;;
51451;SDS011;37521;52.020;-1.740;2023-05-07T02:28:43;6.90;;;3.88;;
51451;SDS011;37521;52.020;-1.740;2023-05-07T02:31:13;5.15;;;3.45;;
51451;SDS011;37521;52.020;-1.740;2023-05-07T02:33:41;5.85;;;4.05;;
51451;SDS011;37521;52.020;-1.740;2023-05-07T02:36:10;7.63;;;3.75;;
51451;SDS011;37521;52.020;-1.740;2023-05-07T02:38:52;5.57;;;3.58;;
51451;SDS011;37521;52.020;-1.740;2023-05-07T02:41:21;4.43;;;3.95;;
51451;SDS011;37521;52.020;-1.740;2023-05-07T02:43:49;6.05;;;3.78;;
51451;SDS011;37521;52.020;-1.740;2023-05-07T02:46:18;6.03;;;3.97;;
51451;SDS011;37521;52.020;-1.740;2023-05-07T02:48:55;7.32;;;3.75;;
51451;SDS011;37521;52.020;-1.740;2023-05-07T02:51:23;6.88;;;3.88;;
51451;SDS011;37521;52.020;-1.740;2023-05-07T02:53:54;6.72;;;3.85;;
51451;SDS011;37521;52.020;-1.740;2023-05-07T02:56:22;4.20;;;3.20;;
51451;SDS011;37521;52.020;-1.740;2023-05-07T02:58:53;4.85;;;3.47;;
51451;SDS011;37521;52.020;-1.740;2023-05-07T03:01:25;6.40;;;3.35;;
51451;SDS011;37521;52.020;-1.740;2023-05-07T03:04:03;7.53;;;3.50;;
51451;SDS011;37521;52.020;-1.740;2023-05-07T03:06:31;6.35;;;3.85;;
51451;SDS011;37521;52.020;-1.740;2023-05-07T03:08:59;7.55;;;3.92;;
51451;SDS011;37521;52.020;-1.740;2023-05-07T03:11:28;6.07;;;3.83;;
51451;SDS011;37521;52.020;-1.740;2023-05-07T03:13:56;6.25;;;3.50;;
51451;SDS011;37521;52.020;-1.740;2023-05-07T03:16:26;8.27;;;4.18;;
51451;SDS011;37521;52.020;-1.740;2023-05-07T03:18:54;6.65;;;3.90;;
51451;SDS011;37521;52.020;-1.740;2023-05-07T03:21:23;4.07;;;3.30;;
51451;SDS011;37521;52.020;-1.740;2023-05-07T03:23:53;7.95;;;4.22;;
51451;SDS011;37521;52.020;-1.740;2023-05-07T03:26:21;5.10;;;3.63;;
51451;SDS011;37521;52.020;-1.740;2023-05-07T03:28:49;5.75;;;3.30;;
51451;SDS011;37521;52.020;-1.740;2023-05-07T03:31:17;6.78;;;3.35;;
51451;SDS011;37521;52.020;-1.740;2023-05-07T03:33:53;5.22;;;3.30;;
51451;SDS011;37521;52.020;-1.740;2023-05-07T03:36:23;8.18;;;3.60;;
51451;SDS011;37521;52.020;-1.740;2023-05-07T03:38:54;5.85;;;3.65;;
51451;SDS011;37521;52.020;-1.740;2023-05-07T03:41:25;6.95;;;4.53;;
51451;SDS011;37521;52.020;-1.740;2023-05-07T03:43:53;6.35;;;3.58;;
51451;SDS011;37521;52.020;-1.740;2023-05-07T03:46:22;5.93;;;3.88;;
51451;SDS011;37521;52.020;-1.740;2023-05-07T03:48:54;6.93;;;4.10;;
51451;SDS011;37521;52.020;-1.740;2023-05-07T03:51:23;5.47;;;4.00;;
51451;SDS011;37521;52.020;-1.740;2023-05-07T03:53:52;4.93;;;3.60;;
51451;SDS011;37521;52.020;-1.740;2023-05-07T03:56:21;6.80;;;3.75;;
51451;SDS011;37521;52.020;-1.740;2023-05-07T03:58:54;6.95;;;3.53;;
51451;SDS011;37521;52.020;-1.740;2023-05-07T04:01:22;6.28;;;3.47;;
51451;SDS011;37521;52.020;-1.740;2023-05-07T04:03:50;4.95;;;3.75;;
51451;SDS011;37521;52.020;-1.740;2023-05-07T04:06:20;8.43;;;3.47;;
51451;SDS011;37521;52.020;-1.740;2023-05-07T04:08:49;5.82;;;3.10;;
51451;SDS011;37521;52.020;-1.740;2023-05-07T04:11:17;4.22;;;3.17;;
51451;SDS011;37521;52.020;-1.740;2023-05-07T04:13:46;6.28;;;3.55;;
51451;SDS011;37521;52.020;-1.740;2023-05-07T04:16:18;4.55;;;3.67;;
51451;SDS011;37521;52.020;-1.740;2023-05-07T04:18:47;5.32;;;3.30;;
51451;SDS011;37521;52.020;-1.740;2023-05-07T04:21:15;4.18;;;3.42;;
51451;SDS011;37521;52.020;-1.740;2023-05-07T04:23:46;6.65;;;3.42;;
51451;SDS011;37521;52.020;-1.740;2023-05-07T04:26:14;5.10;;;2.90;;
51451;SDS011;37521;52.020;-1.740;2023-05-07T04:28:44;3.35;;;2.47;;
51451;SDS011;37521;52.020;-1.740;2023-05-07T04:31:14;5.00;;;3.33;;
51451;SDS011;37521;52.020;-1.740;2023-05-07T04:33:44;4.07;;;2.42;;
51451;SDS011;37521;52.020;-1.740;2023-05-07T04:36:13;3.72;;;3.00;;
51451;SDS011;37521;52.020;-1.740;2023-05-07T04:38:49;5.28;;;3.28;;
51451;SDS011;37521;52.020;-1.740;2023-05-07T04:41:19;5.82;;;3.40;;
51451;SDS011;37521;52.020;-1.740;2023-05-07T04:43:47;4.32;;;2.58;;
51451;SDS011;37521;52.020;-1.740;2023-05-07T04:46:17;3.85;;;2.92;;
51451;SDS011;37521;52.020;-1.740;2023-05-07T04:48:48;4.97;;;3.10;;
51451;SDS011;37521;52.020;-1.740;2023-05-07T04:51:16;5.40;;;3.60;;
51451;SDS011;37521;52.020;-1.740;2023-05-07T04:53:44;5.50;;;3.13;;
51451;SDS011;37521;52.020;-1.740;2023-05-07T04:56:13;7.47;;;3.40;;
51451;SDS011;37521;52.020;-1.740;2023-05-07T04:58:44;3.25;;;2.47;;
51451;SDS011;37521;52.020;-1.740;2023-05-07T05:01:13;3.60;;;2.50;;
51451;SDS011;37521;52.020;-1.740;2023-05-07T05:03:41;2.13;;;1.88;;
51451;SDS011;37521;52.020;-1.740;2023-05-07T05:06:10;5.60;;;2.22;;
51451;SDS011;37521;52.020;-1.740;2023-05-07T05:08:38;3.65;;;2.45;;
51451;SDS011;37521;52.020;-1.740;2023-05-07T05:11:08;3.03;;;2.20;;
51451;SDS011;37521;52.020;-1.740;2023-05-07T05:13:38;4.88;;;2.63;;
51451;SDS011;37521;52.020;-1.740;2023-05-07T05:16:13;4.38;;;2.30;;
51451;SDS011;37521;52.020;-1.740;2023-05-07T05:18:41;7.22;;;2.58;;
51451;SDS011;37521;52.020;-1.740;2023-05-07T05:21:11;2.25;;;1.95;;
51451;SDS011;37521;52.020;-1.740;2023-05-07T05:23:41;7.63;;;2.33;;
51451;SDS011;37521;52.020;-1.740;2023-05-07T05:26:10;3.55;;;2.05;;
51451;SDS011;37521;52.020;-1.740;2023-05-07T05:28:40;2.03;;;1.83;;
51451;SDS011;37521;52.020;-1.740;2023-05-07T05:31:08;4.05;;;2.28;;
51451;SDS011;37521;52.020;-1.740;2023-05-07T05:33:37;3.10;;;1.92;;
51451;SDS011;37521;52.020;-1.740;2023-05-07T05:36:06;3.22;;;2.30;;
51451;SDS011;37521;52.020;-1.740;2023-05-07T05:38:37;2.03;;;1.83;;
51451;SDS011;37521;52.020;-1.740;2023-05-07T05:41:07;2.08;;;1.88;;
51451;SDS011;37521;52.020;-1.740;2023-05-07T05:43:35;3.78;;;2.03;;
51451;SDS011;37521;52.020;-1.740;2023-05-07T05:46:05;2.08;;;1.27;;
51451;SDS011;37521;52.020;-1.740;2023-05-07T05:48:35;5.07;;;1.45;;
51451;SDS011;37521;52.020;-1.740;2023-05-07T05:51:04;4.28;;;1.75;;
51451;SDS011;37521;52.020;-1.740;2023-05-07T05:53:32;5.55;;;1.90;;
51451;SDS011;37521;52.020;-1.740;2023-05-07T05:56:01;3.72;;;1.55;;
51451;SDS011;37521;52.020;-1.740;2023-05-07T05:58:31;2.58;;;1.60;;
51451;SDS011;37521;52.020;-1.740;2023-05-07T06:01:04;2.05;;;1.63;;
51451;SDS011;37521;52.020;-1.740;2023-05-07T06:03:35;1.85;;;1.52;;
51451;SDS011;37521;52.020;-1.740;2023-05-07T06:06:08;3.60;;;1.83;;
51451;SDS011;37521;52.020;-1.740;2023-05-07T06:08:36;3.28;;;1.50;;
51451;SDS011;37521;52.020;-1.740;2023-05-07T06:11:04;3.45;;;1.70;;
51451;SDS011;37521;52.020;-1.740;2023-05-07T06:13:36;4.22;;;1.70;;
51451;SDS011;37521;52.020;-1.740;2023-05-07T06:16:06;1.92;;;1.33;;
51451;SDS011;37521;52.020;-1.740;2023-05-07T06:18:34;3.25;;;1.50;;
51451;SDS011;37521;52.020;-1.740;2023-05-07T06:21:03;2.38;;;1.83;;
51451;SDS011;37521;52.020;-1.740;2023-05-07T06:23:33;2.35;;;1.67;;
51451;SDS011;37521;52.020;-1.740;2023-05-07T06:26:01;3.28;;;1.88;;
51451;SDS011;37521;52.020;-1.740;2023-05-07T06:28:35;3.47;;;1.90;;
51451;SDS011;37521;52.020;-1.740;2023-05-07T06:31:15;1.85;;;1.70;;
51451;SDS011;37521;52.020;-1.740;2023-05-07T06:33:51;2.77;;;1.97;;
51451;SDS011;37521;52.020;-1.740;2023-05-07T06:36:22;5.55;;;1.95;;
51451;SDS011;37521;52.020;-1.740;2023-05-07T06:38:53;3.88;;;1.88;;
51451;SDS011;37521;52.020;-1.740;2023-05-07T06:41:21;3.28;;;2.10;;
51451;SDS011;37521;52.020;-1.740;2023-05-07T06:43:50;4.38;;;2.17;;
51451;SDS011;37521;52.020;-1.740;2023-05-07T06:46:31;4.57;;;2.35;;
51451;SDS011;37521;52.020;-1.740;2023-05-07T06:48:59;8.57;;;2.78;;
51451;SDS011;37521;52.020;-1.740;2023-05-07T06:51:28;5.70;;;2.95;;
51451;SDS011;37521;52.020;-1.740;2023-05-07T06:54:00;4.57;;;3.00;;
51451;SDS011;37521;52.020;-1.740;2023-05-07T06:56:32;5.35;;;3.00;;
51451;SDS011;37521;52.020;-1.740;2023-05-07T06:59:03;8.35;;;2.80;;
51451;SDS011;37521;52.020;-1.740;2023-05-07T07:01:36;7.07;;;2.95;;
51451;SDS011;37521;52.020;-1.740;2023-05-07T07:04:06;7.50;;;2.28;;
51451;SDS011;37521;52.020;-1.740;2023-05-07T07:06:35;5.30;;;2.92;;
51451;SDS011;37521;52.020;-1.740;2023-05-07T07:09:08;4.93;;;2.85;;
51451;SDS011;37521;52.020;-1.740;2023-05-07T07:11:36;7.20;;;3.00;;
51451;SDS011;37521;52.020;-1.740;2023-05-07T07:14:05;4.32;;;2.88;;
51451;SDS011;37521;52.020;-1.740;2023-05-07T07:16:41;4.10;;;2.67;;
51451;SDS011;37521;52.020;-1.740;2023-05-07T07:19:09;5.10;;;2.90;;
51451;SDS011;37521;52.020;-1.740;2023-05-07T07:21:37;3.17;;;2.45;;
51451;SDS011;37521;52.020;-1.740;2023-05-07T07:24:06;5.53;;;2.88;;
51451;SDS011;37521;52.020;-1.740;2023-05-07T07:26:34;4.35;;;2.85;;
51451;SDS011;37521;52.020;-1.740;2023-05-07T07:29:02;5.05;;;3.17;;
51451;SDS011;37521;52.020;-1.740;2023-05-07T07:31:31;6.82;;;3.35;;
51451;SDS011;37521;52.020;-1.740;2023-05-07T07:34:00;10.18;;;3.25;;
51451;SDS011;37521;52.020;-1.740;2023-05-07T07:36:29;5.90;;;3.78;;
51451;SDS011;37521;52.020;-1.740;2023-05-07T07:39:13;4.72;;;2.90;;
51451;SDS011;37521;52.020;-1.740;2023-05-07T07:41:41;4.53;;;2.55;;
51451;SDS011;37521;52.020;-1.740;2023-05-07T07:44:10;4.95;;;2.80;;
51451;SDS011;37521;52.020;-1.740;2023-05-07T07:46:45;2.78;;;2.33;;
51451;SDS011;37521;52.020;-1.740;2023-05-07T07:49:15;5.05;;;2.65;;
51451;SDS011;37521;52.020;-1.740;2023-05-07T07:51:43;7.00;;;3.30;;
51451;SDS011;37521;52.020;-1.740;2023-05-07T07:54:12;5.32;;;3.17;;
51451;SDS011;37521;52.020;-1.740;2023-05-07T07:56:41;7.38;;;3.10;;
51451;SDS011;37521;52.020;-1.740;2023-05-07T07:59:11;6.22;;;2.95;;
51451;SDS011;37521;52.020;-1.740;2023-05-07T08:01:40;5.53;;;2.85;;
51451;SDS011;37521;52.020;-1.740;2023-05-07T08:04:09;3.08;;;2.50;;
51451;SDS011;37521;52.020;-1.740;2023-05-07T08:06:41;3.33;;;1.92;;
51451;SDS011;37521;52.020;-1.740;2023-05-07T08:09:10;3.25;;;2.55;;
51451;SDS011;37521;52.020;-1.740;2023-05-07T08:11:40;4.57;;;2.78;;
51451;SDS011;37521;52.020;-1.740;2023-05-07T08:14:09;4.88;;;2.60;;
51451;SDS011;37521;52.020;-1.740;2023-05-07T08:16:37;3.75;;;2.90;;
51451;SDS011;37521;52.020;-1.740;2023-05-07T08:19:06;7.03;;;2.92;;
51451;SDS011;37521;52.020;-1.740;2023-05-07T08:21:34;6.45;;;3.08;;
51451;SDS011;37521;52.020;-1.740;2023-05-07T08:24:09;3.78;;;2.53;;
51451;SDS011;37521;52.020;-1.740;2023-05-07T08:26:39;5.80;;;3.10;;
51451;SDS011;37521;52.020;-1.740;2023-05-07T08:29:09;6.53;;;2.97;;
51451;SDS011;37521;52.020;-1.740;2023-05-07T08:31:37;4.43;;;2.22;;
51451;SDS011;37521;52.020;-1.740;2023-05-07T08:34:06;3.17;;;2.53;;
51451;SDS011;37521;52.020;-1.740;2023-05-07T08:36:39;4.63;;;2.47;;
51451;SDS011;37521;52.020;-1.740;2023-05-07T08:39:11;2.55;;;2.35;;
51451;SDS011;37521;52.020;-1.740;2023-05-07T08:41:40;3.28;;;2.22;;
51451;SDS011;37521;52.020;-1.740;2023-05-07T08:44:11;5.43;;;2.97;;
51451;SDS011;37521;52.020;-1.740;2023-05-07T08:46:41;3.35;;;2.45;;
51451;SDS011;37521;52.020;-1.740;2023-05-07T08:49:10;4.13;;;2.67;;
51451;SDS011;37521;52.020;-1.740;2023-05-07T08:51:39;4.40;;;2.45;;
51451;SDS011;37521;52.020;-1.740;2023-05-07T08:54:09;3.95;;;2.45;;
51451;SDS011;37521;52.020;-1.740;2023-05-07T08:56:43;3.42;;;2.20;;
51451;SDS011;37521;52.020;-1.740;2023-05-07T08:59:11;2.72;;;2.33;;
51451;SDS011;37521;52.020;-1.740;2023-05-07T09:01:41;4.15;;;2.72;;
51451;SDS011;37521;52.020;-1.740;2023-05-07T09:04:10;2.22;;;1.88;;
51451;SDS011;37521;52.020;-1.740;2023-05-07T09:06:40;2.95;;;1.75;;
51451;SDS011;37521;52.020;-1.740;2023-05-07T09:09:15;4.68;;;2.08;;
51451;SDS011;37521;52.020;-1.740;2023-05-07T09:11:45;3.65;;;2.10;;
51451;SDS011;37521;52.020;-1.740;2023-05-07T09:14:17;4.07;;;1.45;;
51451;SDS011;37521;52.020;-1.740;2023-05-07T09:16:51;7.05;;;2.20;;
51451;SDS011;37521;52.020;-1.740;2023-05-07T09:19:22;2.03;;;1.70;;
51451;SDS011;37521;52.020;-1.740;2023-05-07T09:21:57;3.85;;;2.40;;
51451;SDS011;37521;52.020;-1.740;2023-05-07T09:24:31;2.75;;;1.95;;
51451;SDS011;37521;52.020;-1.740;2023-05-07T09:27:04;3.38;;;2.33;;
51451;SDS011;37521;52.020;-1.740;2023-05-07T09:29:33;6.25;;;2.40;;
51451;SDS011;37521;52.020;-1.740;2023-05-07T09:32:03;3.00;;;2.13;;
51451;SDS011;37521;52.020;-1.740;2023-05-07T09:34:34;2.78;;;2.05;;
51451;SDS011;37521;52.020;-1.740;2023-05-07T09:37:05;3.70;;;1.90;;
51451;SDS011;37521;52.020;-1.740;2023-05-07T09:39:41;4.22;;;2.17;;
51451;SDS011;37521;52.020;-1.740;2023-05-07T09:42:12;6.13;;;2.10;;
51451;SDS011;37521;52.020;-1.740;2023-05-07T09:44:42;2.45;;;1.60;;
51451;SDS011;37521;52.020;-1.740;2023-05-07T09:47:16;3.55;;;1.75;;
51451;SDS011;37521;52.020;-1.740;2023-05-07T09:49:51;3.38;;;1.85;;
51451;SDS011;37521;52.020;-1.740;2023-05-07T09:52:24;5.80;;;2.05;;
51451;SDS011;37521;52.020;-1.740;2023-05-07T09:55:03;2.92;;;1.65;;
51451;SDS011;37521;52.020;-1.740;2023-05-07T09:57:33;2.53;;;1.98;;
51451;SDS011;37521;52.020;-1.740;2023-05-07T10:00:06;3.20;;;2.73;;
51451;SDS011;37521;52.020;-1.740;2023-05-07T10:02:53;2.13;;;1.45;;
51451;SDS011;37521;52.020;-1.740;2023-05-07T10:05:36;3.17;;;1.50;;
51451;SDS011;37521;52.020;-1.740;2023-05-07T10:08:05;3.63;;;1.92;;
51451;SDS011;37521;52.020;-1.740;2023-05-07T10:10:38;3.80;;;1.45;;
51451;SDS011;37521;52.020;-1.740;2023-05-07T10:15:44;1.92;;;1.48;;
51451;SDS011;37521;52.020;-1.740;2023-05-07T10:18:12;1.77;;;1.40;;
51451;SDS011;37521;52.020;-1.740;2023-05-07T10:20:45;5.43;;;2.35;;
51451;SDS011;37521;52.020;-1.740;2023-05-07T10:23:17;2.55;;;2.08;;
51451;SDS011;37521;52.020;-1.740;2023-05-07T10:25:51;3.83;;;1.85;;
51451;SDS011;37521;52.020;-1.740;2023-05-07T10:28:29;2.47;;;1.90;;
51451;SDS011;37521;52.020;-1.740;2023-05-07T10:31:05;7.00;;;2.08;;
51451;SDS011;37521;52.020;-1.740;2023-05-07T10:33:45;3.60;;;2.00;;
51451;SDS011;37521;52.020;-1.740;2023-05-07T10:36:20;1.95;;;1.73;;
51451;SDS011;37521;52.020;-1.740;2023-05-07T10:38:52;4.90;;;1.70;;
51451;SDS011;37521;52.020;-1.740;2023-05-07T10:41:21;2.92;;;1.63;;
51451;SDS011;37521;52.020;-1.740;2023-05-07T10:43:51;1.35;;;1.25;;
51451;SDS011;37521;52.020;-1.740;2023-05-07T10:49:09;2.78;;;1.67;;
51451;SDS011;37521;52.020;-1.740;2023-05-07T10:51:47;3.90;;;2.08;;
51451;SDS011;37521;52.020;-1.740;2023-05-07T10:57:58;3.47;;;1.58;;
51451;SDS011;37521;52.020;-1.740;2023-05-07T11:01:10;2.08;;;1.65;;
51451;SDS011;37521;52.020;-1.740;2023-05-07T11:06:38;1.45;;;1.05;;
51451;SDS011;37521;52.020;-1.740;2023-05-07T11:09:09;1.42;;;1.27;;
51451;SDS011;37521;52.020;-1.740;2023-05-07T11:11:47;1.92;;;1.42;;
51451;SDS011;37521;52.020;-1.740;2023-05-07T11:17:19;5.03;;;1.33;;
51451;SDS011;37521;52.020;-1.740;2023-05-07T11:19:55;4.15;;;1.30;;
51451;SDS011;37521;52.020;-1.740;2023-05-07T11:22:41;3.63;;;1.45;;
51451;SDS011;37521;52.020;-1.740;2023-05-07T11:25:22;1.35;;;1.08;;
51451;SDS011;37521;52.020;-1.740;2023-05-07T11:28:03;1.02;;;0.95;;
51451;SDS011;37521;52.020;-1.740;2023-05-07T11:30:34;2.25;;;1.27;;
51451;SDS011;37521;52.020;-1.740;2023-05-07T11:33:05;1.85;;;1.75;;
51451;SDS011;37521;52.020;-1.740;2023-05-07T11:35:34;2.83;;;1.25;;
51451;SDS011;37521;52.020;-1.740;2023-05-07T11:38:04;1.52;;;0.80;;
51451;SDS011;37521;52.020;-1.740;2023-05-07T11:40:34;2.25;;;1.45;;
51451;SDS011;37521;52.020;-1.740;2023-05-07T11:43:09;2.40;;;1.05;;
51451;SDS011;37521;52.020;-1.740;2023-05-07T11:45:39;1.73;;;1.27;;
51451;SDS011;37521;52.020;-1.740;2023-05-07T11:48:07;0.98;;;0.85;;
51451;SDS011;37521;52.020;-1.740;2023-05-07T11:50:36;3.50;;;1.30;;
51451;SDS011;37521;52.020;-1.740;2023-05-07T11:53:18;2.22;;;0.80;;
51451;SDS011;37521;52.020;-1.740;2023-05-07T11:55:46;0.85;;;0.85;;
51451;SDS011;37521;52.020;-1.740;2023-05-07T11:58:20;1.90;;;1.10;;
51451;SDS011;37521;52.020;-1.740;2023-05-07T12:00:50;2.28;;;1.02;;
51451;SDS011;37521;52.020;-1.740;2023-05-07T12:03:19;1.98;;;0.90;;
51451;SDS011;37521;52.020;-1.740;2023-05-07T12:05:48;1.90;;;1.08;;
51451;SDS011;37521;52.020;-1.740;2023-05-07T12:08:16;1.33;;;0.73;;
51451;SDS011;37521;52.020;-1.740;2023-05-07T12:10:45;1.42;;;1.30;;
51451;SDS011;37521;52.020;-1.740;2023-05-07T12:13:16;2.03;;;1.10;;
51451;SDS011;37521;52.020;-1.740;2023-05-07T12:15:44;4.55;;;1.10;;
51451;SDS011;37521;52.020;-1.740;2023-05-07T12:18:14;3.13;;;1.10;;
51451;SDS011;37521;52.020;-1.740;2023-05-07T12:20:42;0.93;;;0.73;;
51451;SDS011;37521;52.020;-1.740;2023-05-07T12:23:11;2.35;;;1.17;;
51451;SDS011;37521;52.020;-1.740;2023-05-07T12:25:40;2.58;;;1.20;;
51451;SDS011;37521;52.020;-1.740;2023-05-07T12:28:13;0.93;;;0.80;;
51451;SDS011;37521;52.020;-1.740;2023-05-07T12:30:43;2.35;;;0.95;;
51451;SDS011;37521;52.020;-1.740;2023-05-07T12:33:11;3.50;;;1.02;;
51451;SDS011;37521;52.020;-1.740;2023-05-07T12:35:44;1.00;;;1.00;;
51451;SDS011;37521;52.020;-1.740;2023-05-07T12:38:12;1.17;;;0.95;;
51451;SDS011;37521;52.020;-1.740;2023-05-07T12:40:43;1.30;;;1.20;;
51451;SDS011;37521;52.020;-1.740;2023-05-07T12:43:16;1.17;;;0.95;;
51451;SDS011;37521;52.020;-1.740;2023-05-07T12:45:45;1.63;;;1.02;;
51451;SDS011;37521;52.020;-1.740;2023-05-07T12:48:16;2.97;;;1.17;;
51451;SDS011;37521;52.020;-1.740;2023-05-07T12:50:44;2.28;;;0.85;;
51451;SDS011;37521;52.020;-1.740;2023-05-07T12:53:12;2.03;;;1.83;;
51451;SDS011;37521;52.020;-1.740;2023-05-07T12:55:42;3.28;;;0.90;;
51451;SDS011;37521;52.020;-1.740;2023-05-07T12:58:16;1.08;;;1.02;;
51451;SDS011;37521;52.020;-1.740;2023-05-07T13:00:47;1.60;;;0.93;;
51451;SDS011;37521;52.020;-1.740;2023-05-07T13:03:24;2.20;;;0.98;;
51451;SDS011;37521;52.020;-1.740;2023-05-07T13:05:54;1.48;;;1.00;;
51451;SDS011;37521;52.020;-1.740;2023-05-07T13:08:26;0.93;;;0.90;;
51451;SDS011;37521;52.020;-1.740;2023-05-07T13:10:56;1.27;;;0.82;;
51451;SDS011;37521;52.020;-1.740;2023-05-07T13:13:26;3.60;;;1.30;;
51451;SDS011;37521;52.020;-1.740;2023-05-07T13:15:58;1.88;;;0.85;;
51451;SDS011;37521;52.020;-1.740;2023-05-07T13:18:28;2.00;;;1.48;;
51451;SDS011;37521;52.020;-1.740;2023-05-07T13:20:58;1.45;;;1.33;;
51451;SDS011;37521;52.020;-1.740;2023-05-07T13:23:27;3.38;;;1.27;;
51451;SDS011;37521;52.020;-1.740;2023-05-07T13:25:56;1.65;;;1.55;;
51451;SDS011;37521;52.020;-1.740;2023-05-07T13:28:24;1.17;;;1.08;;
51451;SDS011;37521;52.020;-1.740;2023-05-07T13:30:53;1.60;;;1.08;;
51451;SDS011;37521;52.020;-1.740;2023-05-07T13:33:21;2.35;;;0.60;;
51451;SDS011;37521;52.020;-1.740;2023-05-07T13:35:51;2.00;;;1.23;;
51451;SDS011;37521;52.020;-1.740;2023-05-07T13:38:20;1.20;;;1.08;;
51451;SDS011;37521;52.020;-1.740;2023-05-07T13:40:50;2.65;;;1.00;;
51451;SDS011;37521;52.020;-1.740;2023-05-07T13:43:18;1.73;;;1.20;;
51451;SDS011;37521;52.020;-1.740;2023-05-07T13:45:46;1.90;;;0.85;;
51451;SDS011;37521;52.020;-1.740;2023-05-07T13:48:15;1.08;;;1.08;;
51451;SDS011;37521;52.020;-1.740;2023-05-07T13:50:43;1.42;;;1.15;;
51451;SDS011;37521;52.020;-1.740;2023-05-07T13:53:12;0.80;;;0.80;;
51451;SDS011;37521;52.020;-1.740;2023-05-07T13:55:42;3.42;;;1.00;;
51451;SDS011;37521;52.020;-1.740;2023-05-07T13:58:10;1.17;;;0.90;;
51451;SDS011;37521;52.020;-1.740;2023-05-07T14:00:38;1.23;;;0.68;;
51451;SDS011;37521;52.020;-1.740;2023-05-07T14:03:06;4.38;;;1.00;;
51451;SDS011;37521;52.020;-1.740;2023-05-07T14:05:34;1.80;;;1.42;;
51451;SDS011;37521;52.020;-1.740;2023-05-07T14:08:03;2.00;;;1.15;;
51451;SDS011;37521;52.020;-1.740;2023-05-07T14:10:33;1.27;;;1.10;;
51451;SDS011;37521;52.020;-1.740;2023-05-07T14:13:01;1.38;;;1.08;;
51451;SDS011;37521;52.020;-1.740;2023-05-07T14:15:30;1.17;;;1.00;;
51451;SDS011;37521;52.020;-1.740;2023-05-07T14:17:58;2.25;;;1.42;;
51451;SDS011;37521;52.020;-1.740;2023-05-07T14:20:28;4.18;;;1.35;;
51451;SDS011;37521;52.020;-1.740;2023-05-07T14:22:57;1.20;;;1.10;;
51451;SDS011;37521;52.020;-1.740;2023-05-07T14:25:25;3.05;;;1.20;;
51451;SDS011;37521;52.020;-1.740;2023-05-07T14:27:55;1.48;;;0.88;;
51451;SDS011;37521;52.020;-1.740;2023-05-07T14:30:23;0.85;;;0.70;;
51451;SDS011;37521;52.020;-1.740;2023-05-07T14:32:51;1.83;;;0.95;;
51451;SDS011;37521;52.020;-1.740;2023-05-07T14:35:19;1.45;;;1.20;;
51451;SDS011;37521;52.020;-1.740;2023-05-07T14:37:47;1.67;;;1.33;;
51451;SDS011;37521;52.020;-1.740;2023-05-07T14:40:15;1.50;;;1.40;;
51451;SDS011;37521;52.020;-1.740;2023-05-07T14:42:44;1.15;;;0.90;;
51451;SDS011;37521;52.020;-1.740;2023-05-07T14:45:13;2.13;;;0.88;;
51451;SDS011;37521;52.020;-1.740;2023-05-07T14:47:41;1.05;;;0.80;;
51451;SDS011;37521;52.020;-1.740;2023-05-07T14:50:09;1.83;;;1.58;;
51451;SDS011;37521;52.020;-1.740;2023-05-07T14:52:37;1.40;;;0.93;;
51451;SDS011;37521;52.020;-1.740;2023-05-07T14:55:06;0.82;;;0.75;;
51451;SDS011;37521;52.020;-1.740;2023-05-07T14:57:35;1.20;;;0.82;;
51451;SDS011;37521;52.020;-1.740;2023-05-07T15:00:03;1.50;;;0.75;;
51451;SDS011;37521;52.020;-1.740;2023-05-07T15:02:34;0.85;;;0.85;;
51451;SDS011;37521;52.020;-1.740;2023-05-07T15:05:03;2.25;;;0.90;;
51451;SDS011;37521;52.020;-1.740;2023-05-07T15:07:32;1.88;;;0.77;;